Time;durP1;ratioP1;P1;durP2;ratioP2;P2;SDS_P1;SDS_P2;PMS_P1;PMS_P2;Temp;Humidity;BMP_temperature;BMP_pressure;BME280_temperature;BME280_humidity;BME280_pressure;Samples;Min_cycle;Max_cycle;Signal;HPM_P1;HPM_P2
2023/07/04 00:01:41;;;;;;;15.23;5.70;;;;;;;14.61;82.41;100936.19;5325977;28;20036;-74
2023/07/04 00:04:19;;;;;;;15.18;4.82;;;;;;;14.55;82.72;100938.06;5326020;28;20050;-73
2023/07/04 00:06:51;;;;;;;14.15;3.95;;;;;;;14.56;83.08;100931.88;5326162;28;20088;-73
2023/07/04 00:09:22;;;;;;;16.27;4.27;;;;;;;14.50;83.16;100931.19;5326243;28;20035;-74
2023/07/04 00:11:53;;;;;;;13.80;4.67;;;;;;;14.50;83.79;100933.81;5326078;28;20024;-73
2023/07/04 00:14:25;;;;;;;18.07;5.60;;;;;;;14.47;83.70;100929.50;5324755;28;20028;-72
2023/07/04 00:16:56;;;;;;;13.27;4.73;;;;;;;14.41;83.78;100932.31;5325766;28;20352;-72
2023/07/04 00:19:31;;;;;;;14.03;5.40;;;;;;;14.40;84.01;100933.19;5325741;28;20386;-73
2023/07/04 00:22:04;;;;;;;16.17;4.93;;;;;;;14.34;85.01;100923.72;5325731;28;20045;-73
2023/07/04 00:24:37;;;;;;;13.57;5.15;;;;;;;14.29;84.86;100928.22;5324558;28;20023;-73
2023/07/04 00:27:10;;;;;;;;;;;;;;;14.28;84.16;100929.16;5326430;28;20110;-73
2023/07/04 00:29:41;;;;;;;18.13;5.53;;;;;;;14.26;85.36;100923.06;5324217;28;19978;-74
2023/07/04 00:32:15;;;;;;;19.73;4.97;;;;;;;14.23;85.69;100928.38;5325531;28;20063;-74
2023/07/04 00:34:46;;;;;;;16.73;4.88;;;;;;;14.21;86.10;100923.19;5325673;28;20339;-73
2023/07/04 00:37:21;;;;;;;18.10;5.07;;;;;;;14.17;86.31;100925.94;5325598;28;20026;-73
2023/07/04 00:39:53;;;;;;;17.98;4.70;;;;;;;14.16;86.33;100926.84;5325699;28;20076;-73
2023/07/04 00:42:25;;;;;;;19.65;4.57;;;;;;;14.13;86.90;100926.91;5324256;28;20024;-74
2023/07/04 00:44:58;;;;;;;19.17;5.50;;;;;;;14.13;87.32;100932.16;5325391;28;20582;-73
2023/07/04 00:47:43;;;;;;;14.73;5.25;;;;;;;14.18;87.14;100928.53;5325393;28;20038;-73
2023/07/04 00:50:19;;;;;;;19.25;6.15;;;;;;;14.15;87.43;100920.75;5325393;28;20441;-73
2023/07/04 00:52:53;;;;;;;17.38;4.80;;;;;;;14.18;87.44;100931.16;5324270;28;20143;-72
2023/07/04 00:55:25;;;;;;;19.90;6.57;;;;;;;14.26;87.28;100927.44;5325207;28;20032;-73
2023/07/04 00:57:57;;;;;;;14.93;4.30;;;;;;;14.27;87.36;100922.16;5324082;28;20069;-73
2023/07/04 01:00:28;;;;;;;27.27;5.97;;;;;;;14.29;87.08;100924.75;5324784;28;20036;-73
2023/07/04 01:03:13;;;;;;;19.60;5.50;;;;;;;14.28;87.46;100929.16;5325258;28;20402;-73
2023/07/04 01:06:29;;;;;;;22.15;5.38;;;;;;;14.32;87.18;100932.53;5325148;28;20031;-73
2023/07/04 01:09:04;;;;;;;13.15;4.70;;;;;;;14.37;87.06;100946.41;5322989;28;20046;-73
2023/07/04 01:11:44;;;;;;;18.05;4.93;;;;;;;14.34;87.41;100928.97;5329795;28;20364;-74
2023/07/04 01:14:24;;;;;;;17.27;5.18;;;;;;;14.28;88.09;100936.13;5329717;28;20459;-73
2023/07/04 01:16:56;;;;;;;18.15;5.30;;;;;;;14.22;88.08;100929.31;5329450;28;20416;-73
2023/07/04 01:19:35;;;;;;;17.88;6.10;;;;;;;14.18;88.73;100923.28;5329695;28;20031;-73
2023/07/04 01:22:31;;;;;;;17.08;5.35;;;;;;;14.17;88.87;100936.44;5329405;28;20077;-73
2023/07/04 01:25:27;;;;;;;21.90;5.63;;;;;;;14.17;89.05;100936.44;5329514;28;20118;-74
2023/07/04 01:28:02;;;;;;;21.17;5.15;;;;;;;14.15;89.49;100946.97;5329585;28;20023;-73
2023/07/04 01:30:39;;;;;;;22.95;6.13;;;;;;;14.19;89.34;100935.47;5328937;28;20112;-73
2023/07/04 01:33:13;;;;;;;25.42;7.05;;;;;;;14.18;89.49;100939.00;5329262;28;20028;-73
2023/07/04 01:35:44;;;;;;;18.15;6.20;;;;;;;14.14;89.59;100942.59;5329187;28;20380;-72
2023/07/04 01:38:16;;;;;;;16.07;4.83;;;;;;;14.13;90.02;100945.25;5328998;28;20403;-73
2023/07/04 01:40:47;;;;;;;21.67;5.93;;;;;;;14.12;89.97;100933.03;5329061;28;20037;-72
2023/07/04 01:43:24;;;;;;;24.70;6.47;;;;;;;14.07;90.80;100941.03;5328979;28;20031;-73
2023/07/04 01:45:56;;;;;;;15.07;5.15;;;;;;;14.08;90.62;100940.13;5329272;28;20031;-72
2023/07/04 01:48:28;;;;;;;18.10;5.57;;;;;;;14.10;90.82;100942.72;5328992;28;20028;-73
2023/07/04 01:50:59;;;;;;;20.95;5.82;;;;;;;14.08;91.34;100939.28;5328927;28;20028;-73
2023/07/04 01:53:31;;;;;;;24.53;6.47;;;;;;;14.10;91.31;100942.72;5328879;28;20427;-73
2023/07/04 01:56:03;;;;;;;20.73;6.23;;;;;;;14.15;90.99;100944.34;5327516;28;20051;-73
2023/07/04 01:58:34;;;;;;;17.40;5.37;;;;;;;14.20;90.91;100952.94;5328605;27;20028;-72
2023/07/04 02:01:06;;;;;;;22.87;6.63;;;;;;;14.25;91.11;100942.34;5328413;28;20070;-73
2023/07/04 02:03:37;;;;;;;29.03;6.90;;;;;;;14.28;90.36;100947.50;5310420;28;20032;-73
2023/07/04 02:06:09;;;;;;;30.83;6.93;;;;;;;14.33;90.63;100936.88;5328419;28;20486;-72
2023/07/04 02:08:40;;;;;;;18.30;6.83;;;;;;;14.33;90.43;100937.75;5328779;28;20115;-74
2023/07/04 02:11:14;;;;;;;23.70;6.20;;;;;;;14.33;90.54;100932.50;5328984;28;20077;-75
2023/07/04 02:13:49;;;;;;;19.88;5.80;;;;;;;14.34;90.79;100928.13;5328767;28;20028;-73
2023/07/04 02:16:20;;;;;;;14.70;5.45;;;;;;;14.32;91.28;100929.94;5328588;28;20513;-73
2023/07/04 02:18:52;;;;;;;18.37;5.97;;;;;;;14.33;90.91;100937.75;5328164;28;20032;-72
2023/07/04 02:21:23;;;;;;;21.90;6.80;;;;;;;14.32;90.66;100932.53;5328267;28;20024;-72
2023/07/04 02:23:55;;;;;;;25.43;6.30;;;;;;;14.33;91.03;100927.25;5328551;28;20032;-73
2023/07/04 02:26:27;;;;;;;20.55;6.35;;;;;;;14.34;90.91;100928.13;5328219;28;20031;-73
2023/07/04 02:29:01;;;;;;;15.53;5.00;;;;;;;14.36;90.86;100931.53;5328202;28;20363;-73
2023/07/04 02:31:33;;;;;;;17.83;6.80;;;;;;;14.38;90.94;100930.63;5329881;28;20103;-75
2023/07/04 02:34:04;;;;;;;24.37;6.67;;;;;;;14.41;91.00;100937.56;5328318;28;20476;-74
2023/07/04 02:36:36;;;;;;;19.33;5.80;;;;;;;14.39;91.62;100934.97;5328062;28;20058;-74
2023/07/04 02:39:07;;;;;;;20.23;6.03;;;;;;;14.38;91.42;100941.09;5328255;28;20023;-73
2023/07/04 02:41:39;;;;;;;23.43;6.10;;;;;;;14.38;91.81;100941.09;5328377;28;20096;-74
2023/07/04 02:44:10;;;;;;;20.07;6.30;;;;;;;14.34;93.05;100946.47;5328313;28;20027;-74
2023/07/04 02:46:41;;;;;;;31.90;7.50;;;;;;;14.16;95.96;100953.91;5328180;27;20153;-74
2023/07/04 02:49:13;;;;;;;21.60;6.83;;;;;;;13.99;98.41;100938.59;5328303;28;20028;-74
2023/07/04 02:51:48;;;;;;;25.60;6.57;;;;;;;13.81;100.00;100942.53;5327666;28;20034;-74
2023/07/04 02:54:20;;;;;;;23.02;6.93;;;;;;;13.63;100.00;100924.63;5327459;28;20448;-72
2023/07/04 02:56:51;;;;;;;18.63;5.07;;;;;;;13.34;100.00;100933.97;5327585;28;20039;-74
2023/07/04 02:59:23;;;;;;;17.40;4.87;;;;;;;13.12;100.00;100925.69;5327669;28;20028;-73
2023/07/04 03:01:54;;;;;;;17.40;5.30;;;;;;;13.01;100.00;100932.91;5326070;28;20027;-73
2023/07/04 03:04:26;;;;;;;16.70;5.57;;;;;;;12.95;100.00;100926.91;5327490;28;20131;-72
2023/07/04 03:06:57;;;;;;;15.73;5.53;;;;;;;12.89;100.00;100928.78;5327306;28;20032;-72
2023/07/04 03:09:29;;;;;;;16.50;5.73;;;;;;;12.91;100.00;100945.31;5327502;28;20032;-72
2023/07/04 03:12:00;;;;;;;16.03;6.00;;;;;;;12.91;100.00;100937.47;5327383;28;20031;-72
2023/07/04 03:14:32;;;;;;;18.33;5.77;;;;;;;12.82;100.00;100932.44;5327084;27;20486;-72
2023/07/04 03:17:03;;;;;;;18.93;7.00;;;;;;;12.77;100.00;100928.16;5326931;28;20073;-72
2023/07/04 03:19:35;;;;;;;17.77;6.60;;;;;;;12.75;100.00;100953.47;5327052;28;20032;-72
2023/07/04 03:22:06;;;;;;;19.43;6.50;;;;;;;12.77;100.00;100941.22;5325755;28;20054;-72
2023/07/04 03:24:37;;;;;;;30.93;8.83;;;;;;;12.75;100.00;100932.56;5327227;28;20027;-73
2023/07/04 03:27:09;;;;;;;21.33;6.87;;;;;;;12.80;100.00;100937.69;5326856;28;20067;-72
2023/07/04 03:29:40;;;;;;;25.30;8.37;;;;;;;12.68;100.00;100940.53;5326589;28;20055;-72
2023/07/04 03:32:12;;;;;;;19.57;7.20;;;;;;;12.63;100.00;100934.53;5325701;28;20035;-71
2023/07/04 03:34:44;;;;;;;33.83;7.47;;;;;;;12.59;100.00;100945.06;5326791;28;20535;-71
2023/07/04 03:37:15;;;;;;;23.50;7.78;;;;;;;12.60;100.00;100945.91;5326502;28;20062;-73
2023/07/04 03:39:46;;;;;;;25.60;7.27;;;;;;;12.55;100.00;100945.13;5326561;28;20040;-72
2023/07/04 03:42:18;;;;;;;22.70;6.87;;;;;;;12.51;100.00;100949.56;5326535;28;20063;-72
2023/07/04 03:44:49;;;;;;;26.27;6.47;;;;;;;12.49;100.00;100948.72;5326458;28;20035;-72
2023/07/04 03:47:21;;;;;;;24.97;7.17;;;;;;;12.46;100.00;100951.41;5326505;28;20035;-73
2023/07/04 03:49:52;;;;;;;23.07;8.50;;;;;;;12.45;100.00;100952.28;5325226;28;20123;-72
2023/07/04 03:52:24;;;;;;;26.23;6.97;;;;;;;12.54;100.00;100951.25;5326387;28;20027;-73
2023/07/04 03:54:55;;;;;;;27.93;7.47;;;;;;;12.54;100.00;100941.66;5324948;28;20042;-72
2023/07/04 03:57:27;;;;;;;31.90;9.00;;;;;;;12.62;100.00;100949.34;5326294;28;20045;-73
2023/07/04 03:59:58;;;;;;;26.10;7.33;;;;;;;12.68;100.00;100946.63;5326186;28;20081;-73
2023/07/04 04:02:29;;;;;;;24.53;7.23;;;;;;;12.64;100.00;100947.59;5325866;28;20482;-73
2023/07/04 04:05:01;;;;;;;19.17;6.40;;;;;;;12.67;100.00;100947.53;5326114;27;20092;-72
2023/07/04 04:07:32;;;;;;;22.80;6.53;;;;;;;12.72;100.00;100955.28;5326101;28;20028;-72
2023/07/04 04:10:04;;;;;;;35.80;9.20;;;;;;;12.73;100.00;100967.47;5325100;28;20035;-73
2023/07/04 04:12:35;;;;;;;23.25;7.28;;;;;;;12.88;100.00;100964.56;5325059;28;20108;-72
2023/07/04 04:15:07;;;;;;;23.07;7.43;;;;;;;12.91;100.00;100955.78;5326134;28;20031;-73
2023/07/04 04:17:39;;;;;;;27.27;8.13;;;;;;;13.00;100.00;100957.38;5324763;28;20027;-72
2023/07/04 04:20:10;;;;;;;22.43;6.30;;;;;;;13.01;100.00;100951.22;5325952;28;20116;-74
2023/07/04 04:22:45;;;;;;;28.27;7.67;;;;;;;13.08;100.00;100963.31;5324787;28;20375;-72
2023/07/04 04:25:16;;;;;;;31.85;7.32;;;;;;;13.04;100.00;100966.88;5325690;28;20028;-72
2023/07/04 04:27:48;;;;;;;27.93;8.40;;;;;;;13.03;100.00;100959.94;5325640;28;20450;-72
2023/07/04 04:30:20;;;;;;;28.10;7.80;;;;;;;13.05;100.00;100964.22;5325409;28;20050;-73
2023/07/04 04:32:52;;;;;;;30.10;8.00;;;;;;;13.05;100.00;100963.38;5325263;28;20378;-72
2023/07/04 04:35:25;;;;;;;22.77;7.53;;;;;;;13.04;100.00;100967.75;5324549;28;20034;-72
2023/07/04 04:37:57;;;;;;;24.48;8.48;;;;;;;13.06;100.00;100979.03;5325381;28;20024;-72
2023/07/04 04:40:28;;;;;;;27.60;7.30;;;;;;;13.08;100.00;100973.78;5325531;28;20035;-71
2023/07/04 04:42:59;;;;;;;27.17;9.00;;;;;;;13.11;100.00;100978.94;5325717;28;20081;-72
2023/07/04 04:45:31;;;;;;;26.53;6.97;;;;;;;13.09;100.00;100978.97;5325795;28;20035;-72
2023/07/04 04:48:06;;;;;;;27.60;7.27;;;;;;;13.14;100.00;100982.34;5324964;28;20034;-72
2023/07/04 04:50:37;;;;;;;31.88;8.68;;;;;;;13.24;100.00;100992.66;5325237;28;20065;-71
2023/07/04 04:53:14;;;;;;;25.73;7.17;;;;;;;13.27;100.00;100979.50;5325189;28;20499;-70
2023/07/04 04:55:45;;;;;;;25.30;7.78;;;;;;;13.34;100.00;100981.13;5325249;28;20032;-70
2023/07/04 04:58:18;;;;;;;23.40;6.37;;;;;;;13.37;100.00;100981.06;5325285;28;20085;-70
2023/07/04 05:00:49;;;;;;;23.38;6.90;;;;;;;13.39;100.00;100981.88;5325115;28;20023;-71
2023/07/04 05:03:21;;;;;;;33.90;8.77;;;;;;;13.42;100.00;100986.19;5325313;28;20081;-70
2023/07/04 05:05:52;;;;;;;21.63;6.03;;;;;;;13.47;100.00;100986.94;5325016;28;20026;-70
2023/07/04 05:08:23;;;;;;;27.50;7.17;;;;;;;13.58;100.00;100991.97;5323984;28;20032;-69
2023/07/04 05:11:04;;;;;;;23.90;6.30;;;;;;;13.68;100.00;100996.09;5325231;28;20095;-72
2023/07/04 05:13:41;;;;;;;23.52;7.68;;;;;;;13.71;100.00;100989.94;5325119;28;20024;-71
2023/07/04 05:16:14;;;;;;;23.02;7.53;;;;;;;13.70;100.00;100996.94;5325048;28;20040;-70
2023/07/04 05:18:47;;;;;;;29.70;8.30;;;;;;;13.67;100.00;100991.78;5325415;28;20027;-71
2023/07/04 05:21:21;;;;;;;23.10;6.57;;;;;;;13.66;100.00;100997.91;5325266;28;20110;-71
2023/07/04 05:23:52;;;;;;;23.20;6.43;;;;;;;13.68;100.00;100996.09;5325257;28;20440;-71
2023/07/04 05:26:26;;;;;;;30.40;8.13;;;;;;;13.71;100.00;100992.56;5325022;28;20031;-71
2023/07/04 05:29:03;;;;;;;25.85;7.10;;;;;;;13.74;100.00;100990.72;5324898;28;20047;-71
2023/07/04 05:31:34;;;;;;;25.02;7.72;;;;;;;13.77;100.00;101008.13;5324348;28;20051;-72
2023/07/04 05:34:06;;;;;;;30.38;8.95;;;;;;;13.81;100.00;101007.16;5325040;28;20463;-71
2023/07/04 05:36:37;;;;;;;21.43;6.13;;;;;;;13.86;100.00;101007.91;5323522;28;20051;-71
2023/07/04 05:39:09;;;;;;;22.73;6.80;;;;;;;13.91;100.00;101005.19;5324949;28;20106;-71
2023/07/04 05:41:40;;;;;;;29.37;8.13;;;;;;;13.93;100.00;101006.03;5325142;28;20148;-70
2023/07/04 05:44:12;;;;;;;37.73;7.37;;;;;;;13.99;100.00;101003.25;5324663;28;20042;-71
2023/07/04 05:46:43;;;;;;;25.53;6.30;;;;;;;14.07;100.00;101009.19;5324931;28;20419;-71
2023/07/04 05:49:14;;;;;;;24.07;6.97;;;;;;;14.14;100.00;101016.00;5323556;28;20028;-71
2023/07/04 05:51:46;;;;;;;27.47;7.90;;;;;;;14.20;100.00;101010.63;5324751;28;20057;-70
2023/07/04 05:54:17;;;;;;;23.93;6.10;;;;;;;14.25;100.00;101013.13;5325392;28;20429;-71
2023/07/04 05:56:54;;;;;;;22.20;7.07;;;;;;;14.36;100.00;100999.72;5327610;28;20529;-72
2023/07/04 05:59:25;;;;;;;25.23;6.78;;;;;;;14.39;100.00;101018.91;5328831;28;20146;-72
2023/07/04 06:01:58;;;;;;;25.90;8.43;;;;;;;14.43;99.73;101010.97;5328252;28;20070;-71
2023/07/04 06:04:29;;;;;;;20.92;6.80;;;;;;;14.54;99.84;101012.41;5328649;28;20084;-72
2023/07/04 06:07:02;;;;;;;22.33;5.93;;;;;;;14.63;99.73;101008.69;5328764;28;20036;-71
2023/07/04 06:09:33;;;;;;;19.17;6.50;;;;;;;14.65;100.00;101006.03;5328443;28;20031;-71
2023/07/04 06:12:07;;;;;;;22.33;5.77;;;;;;;14.67;97.79;101015.59;5327051;28;20054;-71
2023/07/04 06:14:38;;;;;;;21.55;6.63;;;;;;;14.73;97.92;101025.94;5328673;28;20055;-72
2023/07/04 06:17:10;;;;;;;27.40;7.43;;;;;;;14.79;98.14;101024.91;5328196;28;20536;-71
2023/07/04 06:19:41;;;;;;;20.73;6.33;;;;;;;14.84;96.71;101033.50;5328628;28;20073;-71
2023/07/04 06:22:13;;;;;;;21.83;6.23;;;;;;;14.91;96.25;101036.84;5327004;28;20073;-71
2023/07/04 06:24:46;;;;;;;30.20;6.80;;;;;;;14.88;95.65;101029.06;5328080;28;20482;-72
2023/07/04 06:27:18;;;;;;;24.95;7.80;;;;;;;15.03;95.48;101036.50;5327248;28;20433;-71
2023/07/04 06:29:53;;;;;;;19.93;6.20;;;;;;;15.12;92.27;101036.25;5328196;28;20073;-71
2023/07/04 06:32:25;;;;;;;26.48;6.80;;;;;;;15.21;91.54;101036.91;5327570;28;20424;-70
2023/07/04 06:34:56;;;;;;;23.00;7.10;;;;;;;15.19;90.89;101034.31;5328093;28;20032;-70
2023/07/04 06:37:28;;;;;;;18.97;6.63;;;;;;;15.35;92.86;101031.25;5327647;28;20067;-72
2023/07/04 06:39:59;;;;;;;19.00;6.47;;;;;;;15.45;90.33;101040.59;5327982;28;20400;-71
2023/07/04 06:42:31;;;;;;;22.03;5.30;;;;;;;15.59;89.89;101043.69;5327909;28;20031;-72
2023/07/04 06:45:03;;;;;;;16.30;5.17;;;;;;;15.69;88.64;101049.53;5326431;28;20024;-72
2023/07/04 06:47:34;;;;;;;21.57;4.73;;;;;;;15.75;87.96;101051.97;5327635;28;20261;-71
2023/07/04 06:50:06;;;;;;;22.40;6.07;;;;;;;15.72;84.33;101065.19;5327619;28;20253;-72
2023/07/04 06:52:38;;;;;;;20.08;5.75;;;;;;;15.71;83.60;101066.09;5327815;28;20115;-72
2023/07/04 06:55:09;;;;;;;14.67;5.30;;;;;;;15.79;81.61;101060.66;5327598;28;20118;-72
2023/07/04 06:57:41;;;;;;;19.10;5.30;;;;;;;15.91;78.70;101062.06;5327564;28;20028;-71
2023/07/04 07:00:12;;;;;;;21.03;5.10;;;;;;;16.08;77.77;101065.00;5327347;28;20032;-71
2023/07/04 07:02:48;;;;;;;14.17;4.27;;;;;;;16.22;80.59;101065.44;5327066;28;20390;-71
2023/07/04 07:05:19;;;;;;;16.58;4.72;;;;;;;16.12;77.38;101074.53;5326952;28;20264;-72
2023/07/04 07:07:50;;;;;;;13.67;4.37;;;;;;;16.13;77.03;101076.28;5326499;28;20039;-71
2023/07/04 07:10:22;;;;;;;16.27;5.63;;;;;;;16.09;75.78;101079.88;5327109;28;20562;-72
2023/07/04 07:12:53;;;;;;;12.67;4.00;;;;;;;16.08;74.98;101078.16;5326967;28;20394;-72
2023/07/04 07:15:25;;;;;;;14.27;4.83;;;;;;;16.20;73.03;101082.19;5327263;28;20030;-71
2023/07/04 07:17:56;;;;;;;18.45;4.82;;;;;;;16.17;71.69;101072.63;5326786;28;20043;-73
2023/07/04 07:20:28;;;;;;;13.73;4.37;;;;;;;16.26;71.24;101082.00;5327005;28;20035;-71
2023/07/04 07:22:59;;;;;;;12.93;4.73;;;;;;;16.14;71.56;101077.97;5326983;28;20027;-72
2023/07/04 07:25:30;;;;;;;13.43;4.17;;;;;;;16.28;72.22;101068.81;5326767;28;20126;-71
2023/07/04 07:28:02;;;;;;;14.07;5.13;;;;;;;16.38;72.36;101096.53;5326974;28;20036;-73
2023/07/04 07:30:34;;;;;;;17.05;5.05;;;;;;;16.54;72.21;101076.69;5326439;28;20479;-71
2023/07/04 07:33:05;;;;;;;12.83;5.07;;;;;;;16.69;71.40;101085.00;5326369;28;20046;-72
2023/07/04 07:35:38;;;;;;;15.02;5.07;;;;;;;16.77;71.68;101096.97;5326485;28;20088;-71
2023/07/04 07:38:09;;;;;;;13.50;4.30;;;;;;;16.75;70.48;101101.44;5326854;28;20447;-72
2023/07/04 07:40:41;;;;;;;14.00;4.23;;;;;;;16.89;70.45;101101.00;5326572;28;20043;-72
2023/07/04 07:43:12;;;;;;;12.80;3.97;;;;;;;16.84;68.26;101087.13;5326660;28;20035;-71
2023/07/04 07:45:45;;;;;;;12.63;4.13;;;;;;;16.88;69.60;101085.25;5326589;28;20027;-72
2023/07/04 07:48:17;;;;;;;15.07;4.00;;;;;;;16.74;68.74;101089.19;5326508;28;20073;-72
2023/07/04 07:50:49;;;;;;;17.70;4.10;;;;;;;16.64;68.58;101093.03;5326809;28;20020;-72
2023/07/04 07:53:20;;;;;;;13.27;4.17;;;;;;;16.82;68.29;101093.34;5326495;28;20092;-72
2023/07/04 07:55:51;;;;;;;13.43;4.27;;;;;;;16.86;66.41;101101.13;5326383;28;20063;-72
2023/07/04 07:58:24;;;;;;;11.90;4.50;;;;;;;16.95;66.27;101103.44;5326246;28;20538;-72
2023/07/04 08:00:55;;;;;;;13.90;4.22;;;;;;;17.18;66.73;101098.25;5325805;28;20035;-72
2023/07/04 08:03:27;;;;;;;17.40;4.63;;;;;;;17.28;64.04;101102.31;5326497;28;20028;-71
2023/07/04 08:05:58;;;;;;;15.37;4.80;;;;;;;17.47;62.97;101108.63;5326101;28;20054;-71
2023/07/04 08:08:30;;;;;;;13.77;4.17;;;;;;;17.34;61.76;101115.28;5326247;28;20032;-71
2023/07/04 08:11:01;;;;;;;15.97;4.60;;;;;;;17.30;62.28;101106.59;5325842;28;20059;-72
2023/07/04 08:13:33;;;;;;;16.57;5.23;;;;;;;17.37;64.92;101114.28;5325884;28;20028;-72
2023/07/04 08:16:04;;;;;;;9.67;3.77;;;;;;;17.50;61.17;101118.22;5326152;28;20077;-71
2023/07/04 08:18:35;;;;;;;11.53;3.93;;;;;;;17.41;61.79;101118.53;5325649;28;20537;-73
2023/07/04 08:21:08;;;;;;;13.83;4.60;;;;;;;17.26;59.64;101118.16;5325951;28;20092;-73
2023/07/04 08:23:40;;;;;;;12.68;4.15;;;;;;;17.04;58.68;101118.06;5325554;28;20035;-73
2023/07/04 08:26:20;;;;;;;15.45;4.20;;;;;;;17.17;59.48;101110.59;5325955;28;20032;-74
2023/07/04 08:28:53;;;;;;;10.25;3.75;;;;;;;17.29;58.60;101118.06;5325830;28;20425;-71
2023/07/04 08:31:25;;;;;;;24.85;4.82;;;;;;;17.55;57.98;101118.91;5325021;28;20499;-71
2023/07/04 08:33:57;;;;;;;15.33;3.50;;;;;;;17.51;56.42;101119.91;5325515;28;20077;-72
2023/07/04 08:36:28;;;;;;;11.47;3.97;;;;;;;17.49;54.57;101098.88;5325828;28;20034;-73
2023/07/04 08:39:00;;;;;;;11.43;4.00;;;;;;;17.54;55.15;101103.13;5325794;28;20024;-73
2023/07/04 08:41:45;;;;;;;9.30;3.73;;;;;;;17.45;53.86;101099.94;5324249;28;20028;-73
2023/07/04 08:44:23;;;;;;;9.02;3.45;;;;;;;17.43;54.46;101093.84;5325339;28;20538;-72
2023/07/04 08:46:57;;;;;;;14.45;4.20;;;;;;;17.47;54.42;101095.44;5325479;28;20042;-73
2023/07/04 08:49:45;;;;;;;14.88;3.35;;;;;;;17.43;53.97;101103.53;5325552;28;20031;-72
2023/07/04 08:52:23;;;;;;;9.13;3.67;;;;;;;17.63;54.00;101111.56;5325534;28;20110;-71
2023/07/04 08:54:54;;;;;;;12.95;3.25;;;;;;;17.90;54.18;101114.09;5325488;28;20526;-71
2023/07/04 08:57:35;;;;;;;12.27;3.55;;;;;;;18.06;52.45;101102.97;5325187;28;20157;-73
2023/07/04 09:00:30;;;;;;;10.35;3.38;;;;;;;18.30;54.08;101099.34;5325512;28;20043;-71
2023/07/04 09:03:10;;;;;;;8.27;2.97;;;;;;;18.39;48.81;101106.06;5324732;28;20316;-72
2023/07/04 09:05:48;;;;;;;12.70;3.67;;;;;;;18.58;49.62;101109.66;5325500;28;20023;-72
2023/07/04 09:08:31;;;;;;;11.52;3.75;;;;;;;18.52;49.69;101128.38;5325412;28;20034;-72
2023/07/04 09:11:06;;;;;;;11.93;3.92;;;;;;;18.54;49.49;101121.25;5325181;28;20061;-71
2023/07/04 09:13:42;;;;;;;8.55;3.40;;;;;;;18.38;49.07;101121.00;5325103;28;20111;-73
2023/07/04 09:16:43;;;;;;;9.95;3.30;;;;;;;18.69;49.69;101132.09;5325194;28;20103;-72
2023/07/04 09:19:21;;;;;;;15.43;4.00;;;;;;;18.73;50.08;101131.06;5324863;28;20085;-71
2023/07/04 09:21:52;;;;;;;10.63;4.15;;;;;;;18.91;51.37;101124.19;5324907;28;20027;-72
2023/07/04 09:24:23;;;;;;;12.27;3.67;;;;;;;19.21;52.56;101127.31;5325018;28;20122;-73
2023/07/04 09:26:56;;;;;;;8.03;3.30;;;;;;;19.37;50.42;101130.13;5325230;28;20106;-72
2023/07/04 09:29:28;;;;;;;10.43;3.78;;;;;;;19.47;49.08;101125.31;5324879;28;20028;-72
2023/07/04 09:32:00;;;;;;;10.15;3.40;;;;;;;19.76;48.05;101131.94;5328809;28;20048;-72
2023/07/04 09:34:42;;;;;;;9.90;3.55;;;;;;;19.84;49.95;101132.44;5329305;28;20107;-71
2023/07/04 09:37:24;;;;;;;11.88;4.00;;;;;;;19.81;47.70;101142.31;5329232;28;20076;-72
2023/07/04 09:39:59;;;;;;;10.20;4.03;;;;;;;19.49;46.69;101160.44;5329275;28;20509;-73
2023/07/04 09:42:36;;;;;;;10.85;3.75;;;;;;;19.60;48.12;101155.53;5329222;28;20354;-71
2023/07/04 09:45:11;;;;;;;12.52;3.33;;;;;;;19.21;47.59;101148.44;5328987;28;20374;-73
2023/07/04 09:47:45;;;;;;;16.48;4.40;;;;;;;19.81;48.09;101147.59;5329315;27;20034;-72
2023/07/04 09:50:38;;;;;;;12.40;4.18;;;;;;;20.16;47.92;101137.19;5329150;28;20082;-72
2023/07/04 09:53:16;;;;;;;12.88;4.45;;;;;;;19.69;46.94;101141.06;5328610;28;20063;-72
2023/07/04 09:56:00;;;;;;;11.32;3.95;;;;;;;19.81;47.64;101142.31;5327926;28;20415;-72
2023/07/04 09:58:32;;;;;;;8.63;3.00;;;;;;;19.72;46.20;101150.63;5328690;28;20031;-73
2023/07/04 10:01:18;;;;;;;9.53;3.13;;;;;;;19.84;45.23;101145.66;5328635;28;20039;-72
2023/07/04 10:03:50;;;;;;;12.43;2.97;;;;;;;20.36;46.84;101149.44;5328511;28;20050;-71
2023/07/04 10:06:33;;;;;;;9.23;2.72;;;;;;;20.50;43.84;101154.94;5328785;28;20027;-73
2023/07/04 10:09:17;;;;;;;9.60;3.47;;;;;;;19.85;43.44;101143.88;5328714;28;20030;-72
2023/07/04 10:11:51;;;;;;;8.85;3.33;;;;;;;20.30;42.79;101139.16;5328431;28;20028;-73
2023/07/04 10:14:35;;;;;;;9.63;3.72;;;;;;;21.23;43.52;101148.72;5328397;28;20080;-72
2023/07/04 10:17:10;;;;;;;12.18;3.58;;;;;;;20.90;43.50;101138.91;5328219;28;20031;-72
2023/07/04 10:19:44;;;;;;;12.18;3.40;;;;;;;21.21;45.23;101124.94;5328310;28;20023;-73
2023/07/04 10:22:29;;;;;;;12.57;3.88;;;;;;;22.13;42.73;101121.78;5328287;28;20104;-72
2023/07/04 10:25:02;;;;;;;9.40;3.58;;;;;;;21.88;43.88;101140.00;5328382;28;20051;-72
2023/07/04 10:27:36;;;;;;;15.85;4.20;;;;;;;21.25;43.84;101147.69;5328330;28;20027;-72
2023/07/04 10:30:16;;;;;;;8.50;3.20;;;;;;;21.63;42.19;101141.34;5328070;28;20063;-72
2023/07/04 10:32:52;;;;;;;9.52;3.60;;;;;;;21.87;41.27;101146.28;5327605;28;20196;-72
2023/07/04 10:35:30;;;;;;;10.35;2.88;;;;;;;21.65;41.79;101131.50;5327973;28;20494;-71
2023/07/04 10:38:12;;;;;;;7.38;2.88;;;;;;;21.89;43.24;101123.16;5327813;28;20559;-72
2023/07/04 10:40:44;;;;;;;14.85;3.50;;;;;;;22.09;40.59;101136.19;5327726;28;20454;-72
2023/07/04 10:43:34;;;;;;;;;;;;;;;23.33;39.85;101142.38;5326853;28;20034;-72
2023/07/04 10:46:11;;;;;;;9.60;3.85;;;;;;;23.79;36.50;101139.53;5327988;28;19908;-73
2023/07/04 10:48:45;;;;;;;9.13;3.00;;;;;;;23.39;36.54;101140.19;5326498;28;20024;-73
2023/07/04 10:51:27;;;;;;;9.50;3.45;;;;;;;23.40;37.33;101139.25;5327752;28;20046;-72
2023/07/04 10:53:58;;;;;;;8.80;3.00;;;;;;;24.67;40.68;101140.13;5327819;28;20036;-72
2023/07/04 10:56:32;;;;;;;9.40;2.67;;;;;;;25.19;35.37;101148.22;5327810;27;20364;-72
2023/07/04 10:59:14;;;;;;;11.10;3.17;;;;;;;24.98;36.17;101139.88;5327513;28;20114;-71
2023/07/04 11:01:51;;;;;;;9.60;3.22;;;;;;;25.14;34.28;101140.53;5327272;28;20023;-72
2023/07/04 11:04:27;;;;;;;10.48;3.33;;;;;;;24.38;35.73;101139.34;5327459;28;20356;-73
2023/07/04 11:07:00;;;;;;;14.60;3.45;;;;;;;23.73;39.62;101139.91;5327430;28;20036;-73
2023/07/04 11:09:35;;;;;;;11.43;3.45;;;;;;;23.30;37.52;101133.63;5327462;28;20390;-72
2023/07/04 11:12:15;;;;;;;9.23;3.08;;;;;;;23.87;38.19;101139.09;5327304;28;20024;-72
2023/07/04 11:14:47;;;;;;;12.25;3.40;;;;;;;22.61;38.33;101139.50;5327258;28;20028;-73
2023/07/04 11:17:21;;;;;;;8.57;3.25;;;;;;;22.67;38.73;101139.13;5327205;28;20023;-72
2023/07/04 11:20:07;;;;;;;8.95;3.45;;;;;;;23.04;38.00;101134.31;5327139;28;20051;-72
2023/07/04 11:22:51;;;;;;;9.57;3.53;;;;;;;23.57;36.28;101142.66;5327229;28;20024;-72
2023/07/04 11:25:36;;;;;;;9.40;3.42;;;;;;;23.20;38.68;101134.28;5326932;28;20019;-72
2023/07/04 11:28:34;;;;;;;8.27;3.35;;;;;;;22.87;38.02;101140.63;5327003;28;20035;-72
2023/07/04 11:31:12;;;;;;;8.60;2.80;;;;;;;22.21;38.60;101132.81;5322023;28;20036;-72
2023/07/04 11:33:53;;;;;;;8.80;3.22;;;;;;;23.62;37.23;101129.97;5325424;28;20055;-72
2023/07/04 11:36:30;;;;;;;12.13;2.95;;;;;;;23.43;37.21;101141.72;5326885;28;20024;-73
2023/07/04 11:39:04;;;;;;;8.75;3.53;;;;;;;22.67;38.45;101132.03;5326796;28;20027;-72
2023/07/04 11:41:40;;;;;;;7.70;3.08;;;;;;;22.57;38.75;101122.88;5326738;28;20172;-74
2023/07/04 11:44:21;;;;;;;8.00;3.25;;;;;;;24.02;36.99;101138.09;5326673;28;20028;-73
2023/07/04 11:47:05;;;;;;;12.07;3.20;;;;;;;24.87;34.85;101146.75;5326730;28;20383;-73
2023/07/04 11:49:37;;;;;;;8.77;3.30;;;;;;;26.09;32.85;101137.50;5326995;28;20039;-72